Terminal Aerodrome Forecast
Issued by NWS

Current Version | Previous Version | Text Only | Print | Product List | Glossary On
Versions: 1 2 3 4 5 6 7 8 9 10 11 12 13
000
FTUS43 KAPX 181200 AAA
TAFAPN
TAF AMD
KAPN 181221Z 1812/1912 30008KT P6SM SCT028 BKN150
      TEMPO 1812/1814 BKN029
     FM181600 32010G16KT P6SM SCT150
     FM190100 33004KT P6SM SKC
     FM190900 00000KT P6SM BKN150=

USA.gov is the U.S. government's official web portal to all federal, state and local government web resources and services.